sensor_id;sensor_type;location;lat;lon;timestamp;P1;durP1;ratioP1;P2;durP2;ratioP2
31872;SDS011;22407;42.820;23.374;2023-02-28T00:01:04;21.33;;;8.43;;
31872;SDS011;22407;42.820;23.374;2023-02-28T00:03:29;18.47;;;6.77;;
31872;SDS011;22407;42.820;23.374;2023-02-28T00:05:54;19.57;;;8.00;;
31872;SDS011;22407;42.820;23.374;2023-02-28T00:08:20;18.83;;;7.33;;
31872;SDS011;22407;42.820;23.374;2023-02-28T00:10:45;19.00;;;7.20;;
31872;SDS011;22407;42.820;23.374;2023-02-28T00:13:10;21.80;;;7.97;;
31872;SDS011;22407;42.820;23.374;2023-02-28T00:15:36;21.90;;;8.77;;
31872;SDS011;22407;42.820;23.374;2023-02-28T00:18:01;26.33;;;9.20;;
31872;SDS011;22407;42.820;23.374;2023-02-28T00:20:27;24.50;;;9.88;;
31872;SDS011;22407;42.820;23.374;2023-02-28T00:22:53;23.20;;;9.43;;
31872;SDS011;22407;42.820;23.374;2023-02-28T00:25:19;21.07;;;9.30;;
31872;SDS011;22407;42.820;23.374;2023-02-28T00:27:45;25.65;;;9.82;;
31872;SDS011;22407;42.820;23.374;2023-02-28T00:30:11;23.47;;;9.77;;
31872;SDS011;22407;42.820;23.374;2023-02-28T00:32:37;26.65;;;9.63;;
31872;SDS011;22407;42.820;23.374;2023-02-28T00:35:03;23.17;;;8.77;;
31872;SDS011;22407;42.820;23.374;2023-02-28T00:37:28;26.87;;;9.37;;
31872;SDS011;22407;42.820;23.374;2023-02-28T00:39:54;24.97;;;9.53;;
31872;SDS011;22407;42.820;23.374;2023-02-28T00:42:19;27.33;;;10.57;;
31872;SDS011;22407;42.820;23.374;2023-02-28T00:44:44;28.33;;;11.27;;
31872;SDS011;22407;42.820;23.374;2023-02-28T00:47:09;25.90;;;10.53;;
31872;SDS011;22407;42.820;23.374;2023-02-28T00:49:35;24.73;;;10.17;;
31872;SDS011;22407;42.820;23.374;2023-02-28T00:52:00;27.97;;;11.27;;
31872;SDS011;22407;42.820;23.374;2023-02-28T00:54:25;27.00;;;10.20;;
31872;SDS011;22407;42.820;23.374;2023-02-28T00:56:51;29.80;;;10.80;;
31872;SDS011;22407;42.820;23.374;2023-02-28T00:59:16;25.47;;;10.00;;
31872;SDS011;22407;42.820;23.374;2023-02-28T01:01:42;28.08;;;10.98;;
31872;SDS011;22407;42.820;23.374;2023-02-28T01:04:08;26.75;;;10.55;;
31872;SDS011;22407;42.820;23.374;2023-02-28T01:06:33;27.77;;;9.67;;
31872;SDS011;22407;42.820;23.374;2023-02-28T01:08:59;25.30;;;9.87;;
31872;SDS011;22407;42.820;23.374;2023-02-28T01:11:24;29.80;;;10.65;;
31872;SDS011;22407;42.820;23.374;2023-02-28T01:13:50;27.70;;;9.67;;
31872;SDS011;22407;42.820;23.374;2023-02-28T01:16:15;25.87;;;10.30;;
31872;SDS011;22407;42.820;23.374;2023-02-28T01:18:40;31.57;;;10.53;;
31872;SDS011;22407;42.820;23.374;2023-02-28T01:21:10;36.90;;;12.47;;
31872;SDS011;22407;42.820;23.374;2023-02-28T01:23:36;28.33;;;11.13;;
31872;SDS011;22407;42.820;23.374;2023-02-28T01:26:20;26.33;;;10.00;;
31872;SDS011;22407;42.820;23.374;2023-02-28T01:28:46;25.80;;;9.82;;
31872;SDS011;22407;42.820;23.374;2023-02-28T01:31:12;28.40;;;10.60;;
31872;SDS011;22407;42.820;23.374;2023-02-28T01:33:37;30.00;;;10.37;;
31872;SDS011;22407;42.820;23.374;2023-02-28T01:36:04;25.20;;;9.63;;
31872;SDS011;22407;42.820;23.374;2023-02-28T01:38:30;29.38;;;11.13;;
31872;SDS011;22407;42.820;23.374;2023-02-28T01:40:56;27.33;;;10.63;;
31872;SDS011;22407;42.820;23.374;2023-02-28T01:45:46;27.80;;;11.03;;
31872;SDS011;22407;42.820;23.374;2023-02-28T01:48:11;26.77;;;11.10;;
31872;SDS011;22407;42.820;23.374;2023-02-28T01:50:39;30.63;;;11.40;;
31872;SDS011;22407;42.820;23.374;2023-02-28T01:53:05;34.20;;;12.30;;
31872;SDS011;22407;42.820;23.374;2023-02-28T01:55:31;32.95;;;11.40;;
31872;SDS011;22407;42.820;23.374;2023-02-28T01:57:58;35.33;;;12.87;;
31872;SDS011;22407;42.820;23.374;2023-02-28T02:00:25;31.23;;;11.60;;
31872;SDS011;22407;42.820;23.374;2023-02-28T02:02:53;29.77;;;11.20;;
31872;SDS011;22407;42.820;23.374;2023-02-28T02:05:23;32.78;;;12.02;;
31872;SDS011;22407;42.820;23.374;2023-02-28T02:07:50;41.50;;;13.30;;
31872;SDS011;22407;42.820;23.374;2023-02-28T02:10:16;31.30;;;11.25;;
31872;SDS011;22407;42.820;23.374;2023-02-28T02:15:19;29.02;;;10.02;;
31872;SDS011;22407;42.820;23.374;2023-02-28T02:17:48;25.92;;;10.38;;
31872;SDS011;22407;42.820;23.374;2023-02-28T02:22:57;35.75;;;10.07;;
31872;SDS011;22407;42.820;23.374;2023-02-28T02:25:28;34.72;;;12.48;;
31872;SDS011;22407;42.820;23.374;2023-02-28T02:30:55;25.95;;;9.68;;
31872;SDS011;22407;42.820;23.374;2023-02-28T02:38:09;39.23;;;13.20;;
31872;SDS011;22407;42.820;23.374;2023-02-28T02:40:38;33.33;;;13.30;;
31872;SDS011;22407;42.820;23.374;2023-02-28T02:43:12;34.85;;;12.93;;
31872;SDS011;22407;42.820;23.374;2023-02-28T02:48:08;34.67;;;12.75;;
31872;SDS011;22407;42.820;23.374;2023-02-28T02:50:38;33.70;;;11.32;;
31872;SDS011;22407;42.820;23.374;2023-02-28T02:53:05;32.42;;;10.63;;
31872;SDS011;22407;42.820;23.374;2023-02-28T02:55:33;26.17;;;9.50;;
31872;SDS011;22407;42.820;23.374;2023-02-28T02:58:01;26.60;;;9.17;;
31872;SDS011;22407;42.820;23.374;2023-02-28T03:00:30;26.88;;;9.07;;
31872;SDS011;22407;42.820;23.374;2023-02-28T03:02:56;27.00;;;9.57;;
31872;SDS011;22407;42.820;23.374;2023-02-28T03:05:29;25.10;;;8.50;;
31872;SDS011;22407;42.820;23.374;2023-02-28T03:07:55;33.20;;;9.43;;
31872;SDS011;22407;42.820;23.374;2023-02-28T03:10:34;25.20;;;8.90;;
31872;SDS011;22407;42.820;23.374;2023-02-28T03:15:32;13.90;;;5.63;;
31872;SDS011;22407;42.820;23.374;2023-02-28T03:18:03;16.58;;;6.00;;
31872;SDS011;22407;42.820;23.374;2023-02-28T03:28:08;16.50;;;6.20;;
31872;SDS011;22407;42.820;23.374;2023-02-28T03:35:33;14.53;;;5.67;;
31872;SDS011;22407;42.820;23.374;2023-02-28T03:38:07;12.95;;;4.88;;
31872;SDS011;22407;42.820;23.374;2023-02-28T03:40:33;16.33;;;6.00;;
31872;SDS011;22407;42.820;23.374;2023-02-28T03:43:02;19.65;;;6.35;;
31872;SDS011;22407;42.820;23.374;2023-02-28T03:45:30;12.43;;;5.57;;
31872;SDS011;22407;42.820;23.374;2023-02-28T03:48:19;16.48;;;6.35;;
31872;SDS011;22407;42.820;23.374;2023-02-28T03:50:42;17.83;;;6.97;;
31872;SDS011;22407;42.820;23.374;2023-02-28T03:58:46;20.63;;;8.77;;
31872;SDS011;22407;42.820;23.374;2023-02-28T04:01:14;27.70;;;9.23;;
31872;SDS011;22407;42.820;23.374;2023-02-28T04:03:40;15.65;;;6.90;;
31872;SDS011;22407;42.820;23.374;2023-02-28T04:06:06;14.63;;;5.07;;
31872;SDS011;22407;42.820;23.374;2023-02-28T04:08:32;24.98;;;7.30;;
31872;SDS011;22407;42.820;23.374;2023-02-28T04:11:08;22.83;;;7.10;;
31872;SDS011;22407;42.820;23.374;2023-02-28T04:13:37;10.27;;;4.88;;
31872;SDS011;22407;42.820;23.374;2023-02-28T04:16:06;13.47;;;4.97;;
31872;SDS011;22407;42.820;23.374;2023-02-28T04:18:36;20.27;;;6.78;;
31872;SDS011;22407;42.820;23.374;2023-02-28T04:21:02;24.10;;;6.67;;
31872;SDS011;22407;42.820;23.374;2023-02-28T04:23:27;16.83;;;5.70;;
31872;SDS011;22407;42.820;23.374;2023-02-28T04:25:54;18.50;;;6.43;;
31872;SDS011;22407;42.820;23.374;2023-02-28T04:28:19;22.33;;;6.05;;
31872;SDS011;22407;42.820;23.374;2023-02-28T04:30:44;33.90;;;7.10;;
31872;SDS011;22407;42.820;23.374;2023-02-28T04:33:10;21.10;;;6.93;;
31872;SDS011;22407;42.820;23.374;2023-02-28T04:35:35;26.90;;;6.83;;
31872;SDS011;22407;42.820;23.374;2023-02-28T04:38:00;22.40;;;8.17;;
31872;SDS011;22407;42.820;23.374;2023-02-28T04:40:25;17.70;;;4.93;;
31872;SDS011;22407;42.820;23.374;2023-02-28T04:42:51;17.63;;;5.53;;
31872;SDS011;22407;42.820;23.374;2023-02-28T04:45:16;13.70;;;5.70;;
31872;SDS011;22407;42.820;23.374;2023-02-28T04:47:42;23.33;;;7.70;;
31872;SDS011;22407;42.820;23.374;2023-02-28T04:50:07;18.33;;;6.50;;
31872;SDS011;22407;42.820;23.374;2023-02-28T04:52:33;17.13;;;7.27;;
31872;SDS011;22407;42.820;23.374;2023-02-28T04:54:59;18.80;;;6.50;;
31872;SDS011;22407;42.820;23.374;2023-02-28T04:57:24;18.67;;;5.78;;
31872;SDS011;22407;42.820;23.374;2023-02-28T04:59:49;15.57;;;6.37;;
31872;SDS011;22407;42.820;23.374;2023-02-28T05:02:14;13.43;;;5.80;;
31872;SDS011;22407;42.820;23.374;2023-02-28T05:04:39;14.20;;;4.80;;
31872;SDS011;22407;42.820;23.374;2023-02-28T05:07:05;17.97;;;6.70;;
31872;SDS011;22407;42.820;23.374;2023-02-28T05:09:30;37.97;;;11.90;;
31872;SDS011;22407;42.820;23.374;2023-02-28T05:11:57;33.38;;;11.50;;
31872;SDS011;22407;42.820;23.374;2023-02-28T05:14:23;48.13;;;15.90;;
31872;SDS011;22407;42.820;23.374;2023-02-28T05:16:48;57.60;;;19.43;;
31872;SDS011;22407;42.820;23.374;2023-02-28T05:19:13;52.17;;;18.43;;
31872;SDS011;22407;42.820;23.374;2023-02-28T05:21:40;61.00;;;18.30;;
31872;SDS011;22407;42.820;23.374;2023-02-28T05:24:06;56.50;;;18.73;;
31872;SDS011;22407;42.820;23.374;2023-02-28T05:26:36;45.60;;;15.13;;
31872;SDS011;22407;42.820;23.374;2023-02-28T05:29:02;40.73;;;14.90;;
31872;SDS011;22407;42.820;23.374;2023-02-28T05:31:27;55.13;;;17.87;;
31872;SDS011;22407;42.820;23.374;2023-02-28T05:33:52;45.03;;;17.50;;
31872;SDS011;22407;42.820;23.374;2023-02-28T05:36:18;44.67;;;18.33;;
31872;SDS011;22407;42.820;23.374;2023-02-28T05:38:45;44.07;;;17.47;;
31872;SDS011;22407;42.820;23.374;2023-02-28T05:41:10;39.78;;;16.27;;
31872;SDS011;22407;42.820;23.374;2023-02-28T05:43:36;39.70;;;16.23;;
31872;SDS011;22407;42.820;23.374;2023-02-28T05:46:05;40.92;;;15.70;;
31872;SDS011;22407;42.820;23.374;2023-02-28T05:48:31;36.72;;;14.10;;
31872;SDS011;22407;42.820;23.374;2023-02-28T05:50:57;31.03;;;11.60;;
31872;SDS011;22407;42.820;23.374;2023-02-28T05:53:22;32.67;;;13.80;;
31872;SDS011;22407;42.820;23.374;2023-02-28T05:55:48;33.73;;;12.97;;
31872;SDS011;22407;42.820;23.374;2023-02-28T05:58:13;39.73;;;15.93;;
31872;SDS011;22407;42.820;23.374;2023-02-28T06:00:38;38.83;;;15.80;;
31872;SDS011;22407;42.820;23.374;2023-02-28T06:03:03;34.23;;;14.40;;
31872;SDS011;22407;42.820;23.374;2023-02-28T06:05:29;36.80;;;15.60;;
31872;SDS011;22407;42.820;23.374;2023-02-28T06:07:54;39.47;;;15.17;;
31872;SDS011;22407;42.820;23.374;2023-02-28T06:10:19;44.90;;;16.47;;
31872;SDS011;22407;42.820;23.374;2023-02-28T06:12:45;33.13;;;14.53;;
31872;SDS011;22407;42.820;23.374;2023-02-28T06:15:13;48.73;;;19.30;;
31872;SDS011;22407;42.820;23.374;2023-02-28T06:17:39;71.82;;;27.15;;
31872;SDS011;22407;42.820;23.374;2023-02-28T06:20:05;251.03;;;80.57;;
31872;SDS011;22407;42.820;23.374;2023-02-28T06:22:30;156.35;;;52.97;;
31872;SDS011;22407;42.820;23.374;2023-02-28T06:24:56;57.80;;;23.43;;
31872;SDS011;22407;42.820;23.374;2023-02-28T06:27:22;44.53;;;18.27;;
31872;SDS011;22407;42.820;23.374;2023-02-28T06:29:48;47.30;;;18.77;;
31872;SDS011;22407;42.820;23.374;2023-02-28T06:32:13;38.30;;;15.17;;
31872;SDS011;22407;42.820;23.374;2023-02-28T06:34:38;39.33;;;16.17;;
31872;SDS011;22407;42.820;23.374;2023-02-28T06:37:03;38.97;;;15.93;;
31872;SDS011;22407;42.820;23.374;2023-02-28T06:39:29;34.22;;;15.63;;
31872;SDS011;22407;42.820;23.374;2023-02-28T06:41:55;36.10;;;15.70;;
31872;SDS011;22407;42.820;23.374;2023-02-28T06:44:20;34.40;;;14.80;;
31872;SDS011;22407;42.820;23.374;2023-02-28T06:46:46;34.97;;;14.35;;
31872;SDS011;22407;42.820;23.374;2023-02-28T06:49:11;36.47;;;14.17;;
31872;SDS011;22407;42.820;23.374;2023-02-28T06:51:38;35.47;;;13.30;;
31872;SDS011;22407;42.820;23.374;2023-02-28T06:54:04;34.67;;;14.60;;
31872;SDS011;22407;42.820;23.374;2023-02-28T06:56:29;35.13;;;14.73;;
31872;SDS011;22407;42.820;23.374;2023-02-28T06:58:54;38.27;;;14.83;;
31872;SDS011;22407;42.820;23.374;2023-02-28T07:01:21;38.35;;;15.00;;
31872;SDS011;22407;42.820;23.374;2023-02-28T07:03:48;37.13;;;14.65;;
31872;SDS011;22407;42.820;23.374;2023-02-28T07:06:17;29.13;;;12.47;;
31872;SDS011;22407;42.820;23.374;2023-02-28T07:08:42;32.55;;;14.90;;
31872;SDS011;22407;42.820;23.374;2023-02-28T07:11:08;47.87;;;20.83;;
31872;SDS011;22407;42.820;23.374;2023-02-28T07:13:33;41.13;;;19.07;;
31872;SDS011;22407;42.820;23.374;2023-02-28T07:15:59;46.43;;;19.27;;
31872;SDS011;22407;42.820;23.374;2023-02-28T07:18:25;39.00;;;16.27;;
31872;SDS011;22407;42.820;23.374;2023-02-28T07:20:50;38.43;;;14.83;;
31872;SDS011;22407;42.820;23.374;2023-02-28T07:23:16;37.83;;;15.95;;
31872;SDS011;22407;42.820;23.374;2023-02-28T07:25:41;39.07;;;15.63;;
31872;SDS011;22407;42.820;23.374;2023-02-28T07:28:07;36.77;;;15.13;;
31872;SDS011;22407;42.820;23.374;2023-02-28T07:30:32;32.20;;;12.93;;
31872;SDS011;22407;42.820;23.374;2023-02-28T07:32:57;27.57;;;12.10;;
31872;SDS011;22407;42.820;23.374;2023-02-28T07:35:22;24.77;;;10.03;;
31872;SDS011;22407;42.820;23.374;2023-02-28T07:37:48;26.08;;;9.65;;
31872;SDS011;22407;42.820;23.374;2023-02-28T07:40:13;25.63;;;9.67;;
31872;SDS011;22407;42.820;23.374;2023-02-28T07:42:39;29.50;;;12.60;;
31872;SDS011;22407;42.820;23.374;2023-02-28T07:45:05;26.52;;;12.02;;
31872;SDS011;22407;42.820;23.374;2023-02-28T07:47:30;34.07;;;14.00;;
31872;SDS011;22407;42.820;23.374;2023-02-28T07:49:56;34.45;;;13.68;;
31872;SDS011;22407;42.820;23.374;2023-02-28T07:52:21;34.07;;;13.63;;
31872;SDS011;22407;42.820;23.374;2023-02-28T07:54:50;30.45;;;12.02;;
31872;SDS011;22407;42.820;23.374;2023-02-28T07:57:16;25.48;;;10.77;;
31872;SDS011;22407;42.820;23.374;2023-02-28T07:59:41;135.67;;;32.77;;
31872;SDS011;22407;42.820;23.374;2023-02-28T08:02:08;32.83;;;10.43;;
31872;SDS011;22407;42.820;23.374;2023-02-28T08:04:34;21.70;;;8.35;;
31872;SDS011;22407;42.820;23.374;2023-02-28T08:07:00;24.10;;;8.27;;
31872;SDS011;22407;42.820;23.374;2023-02-28T08:09:25;37.23;;;13.20;;
31872;SDS011;22407;42.820;23.374;2023-02-28T08:11:51;34.23;;;13.63;;
31872;SDS011;22407;42.820;23.374;2023-02-28T08:14:16;33.07;;;13.17;;
31872;SDS011;22407;42.820;23.374;2023-02-28T08:16:41;35.20;;;14.10;;
31872;SDS011;22407;42.820;23.374;2023-02-28T08:19:08;28.57;;;11.97;;
31872;SDS011;22407;42.820;23.374;2023-02-28T08:21:33;61.33;;;26.02;;
31872;SDS011;22407;42.820;23.374;2023-02-28T08:23:58;60.13;;;25.57;;
31872;SDS011;22407;42.820;23.374;2023-02-28T08:26:24;32.73;;;13.30;;
31872;SDS011;22407;42.820;23.374;2023-02-28T08:28:49;34.57;;;12.90;;
31872;SDS011;22407;42.820;23.374;2023-02-28T08:31:15;38.10;;;14.40;;
31872;SDS011;22407;42.820;23.374;2023-02-28T08:33:41;35.28;;;13.40;;
31872;SDS011;22407;42.820;23.374;2023-02-28T08:36:07;34.80;;;13.20;;
31872;SDS011;22407;42.820;23.374;2023-02-28T08:38:33;37.07;;;12.63;;
31872;SDS011;22407;42.820;23.374;2023-02-28T08:40:59;35.65;;;11.85;;
31872;SDS011;22407;42.820;23.374;2023-02-28T08:43:25;34.57;;;11.73;;
31872;SDS011;22407;42.820;23.374;2023-02-28T08:45:53;24.70;;;10.00;;
31872;SDS011;22407;42.820;23.374;2023-02-28T08:48:19;28.08;;;10.75;;
31872;SDS011;22407;42.820;23.374;2023-02-28T08:50:45;28.35;;;10.13;;
31872;SDS011;22407;42.820;23.374;2023-02-28T08:53:19;40.40;;;12.38;;
31872;SDS011;22407;42.820;23.374;2023-02-28T08:55:44;34.43;;;11.60;;
31872;SDS011;22407;42.820;23.374;2023-02-28T08:58:10;31.50;;;11.37;;
31872;SDS011;22407;42.820;23.374;2023-02-28T09:00:35;33.50;;;11.33;;
31872;SDS011;22407;42.820;23.374;2023-02-28T09:03:01;27.80;;;10.40;;
31872;SDS011;22407;42.820;23.374;2023-02-28T09:05:26;37.57;;;10.83;;
31872;SDS011;22407;42.820;23.374;2023-02-28T09:07:54;64.25;;;18.30;;
31872;SDS011;22407;42.820;23.374;2023-02-28T09:10:19;75.80;;;20.57;;
31872;SDS011;22407;42.820;23.374;2023-02-28T09:12:44;74.13;;;19.73;;
31872;SDS011;22407;42.820;23.374;2023-02-28T09:15:11;66.93;;;18.83;;
31872;SDS011;22407;42.820;23.374;2023-02-28T09:17:37;54.13;;;14.97;;
31872;SDS011;22407;42.820;23.374;2023-02-28T09:20:02;92.80;;;28.87;;
31872;SDS011;22407;42.820;23.374;2023-02-28T09:22:27;89.00;;;34.37;;
31872;SDS011;22407;42.820;23.374;2023-02-28T09:24:53;38.33;;;13.57;;
31872;SDS011;22407;42.820;23.374;2023-02-28T09:27:18;47.87;;;15.37;;
31872;SDS011;22407;42.820;23.374;2023-02-28T09:29:43;56.88;;;17.63;;
31872;SDS011;22407;42.820;23.374;2023-02-28T09:32:09;44.90;;;15.47;;
31872;SDS011;22407;42.820;23.374;2023-02-28T09:34:34;59.70;;;19.03;;
31872;SDS011;22407;42.820;23.374;2023-02-28T09:37:02;38.28;;;12.98;;
31872;SDS011;22407;42.820;23.374;2023-02-28T09:39:27;38.67;;;14.37;;
31872;SDS011;22407;42.820;23.374;2023-02-28T09:41:53;43.20;;;14.10;;
31872;SDS011;22407;42.820;23.374;2023-02-28T09:46:48;28.77;;;10.90;;
31872;SDS011;22407;42.820;23.374;2023-02-28T09:49:17;21.50;;;8.65;;
31872;SDS011;22407;42.820;23.374;2023-02-28T09:51:48;24.15;;;8.98;;
31872;SDS011;22407;42.820;23.374;2023-02-28T09:54:16;33.30;;;12.03;;
31872;SDS011;22407;42.820;23.374;2023-02-28T09:56:44;26.77;;;9.85;;
31872;SDS011;22407;42.820;23.374;2023-02-28T10:06:51;20.23;;;8.85;;
31872;SDS011;22407;42.820;23.374;2023-02-28T10:11:49;25.60;;;9.35;;
31872;SDS011;22407;42.820;23.374;2023-02-28T10:14:16;22.83;;;8.63;;
31872;SDS011;22407;42.820;23.374;2023-02-28T10:19:14;24.48;;;9.45;;
31872;SDS011;22407;42.820;23.374;2023-02-28T10:21:45;19.87;;;8.37;;
31872;SDS011;22407;42.820;23.374;2023-02-28T10:24:17;23.45;;;10.18;;
31872;SDS011;22407;42.820;23.374;2023-02-28T10:26:45;18.52;;;7.75;;
31872;SDS011;22407;42.820;23.374;2023-02-28T10:29:11;18.08;;;7.13;;
31872;SDS011;22407;42.820;23.374;2023-02-28T10:31:37;23.33;;;9.10;;
31872;SDS011;22407;42.820;23.374;2023-02-28T10:34:03;23.45;;;8.25;;
31872;SDS011;22407;42.820;23.374;2023-02-28T10:36:31;17.70;;;8.18;;
31872;SDS011;22407;42.820;23.374;2023-02-28T10:38:56;24.17;;;8.20;;
31872;SDS011;22407;42.820;23.374;2023-02-28T10:41:29;20.50;;;7.83;;
31872;SDS011;22407;42.820;23.374;2023-02-28T10:44:13;20.88;;;6.28;;
31872;SDS011;22407;42.820;23.374;2023-02-28T10:46:40;17.23;;;7.27;;
31872;SDS011;22407;42.820;23.374;2023-02-28T10:49:07;15.52;;;6.10;;
31872;SDS011;22407;42.820;23.374;2023-02-28T10:51:38;16.23;;;6.88;;
31872;SDS011;22407;42.820;23.374;2023-02-28T10:54:03;19.85;;;6.60;;
31872;SDS011;22407;42.820;23.374;2023-02-28T10:56:29;18.30;;;7.50;;
31872;SDS011;22407;42.820;23.374;2023-02-28T10:59:29;19.10;;;7.57;;
31872;SDS011;22407;42.820;23.374;2023-02-28T11:01:47;20.92;;;8.55;;
31872;SDS011;22407;42.820;23.374;2023-02-28T11:07:01;16.40;;;6.68;;
31872;SDS011;22407;42.820;23.374;2023-02-28T11:09:27;21.87;;;8.17;;
31872;SDS011;22407;42.820;23.374;2023-02-28T11:11:56;22.08;;;8.32;;
31872;SDS011;22407;42.820;23.374;2023-02-28T11:14:24;26.37;;;9.10;;
31872;SDS011;22407;42.820;23.374;2023-02-28T11:16:49;25.90;;;8.00;;
31872;SDS011;22407;42.820;23.374;2023-02-28T11:19:33;17.88;;;7.30;;
31872;SDS011;22407;42.820;23.374;2023-02-28T11:22:01;25.23;;;8.53;;
31872;SDS011;22407;42.820;23.374;2023-02-28T11:26:55;22.95;;;9.10;;
31872;SDS011;22407;42.820;23.374;2023-02-28T11:34:29;20.38;;;7.97;;
31872;SDS011;22407;42.820;23.374;2023-02-28T11:36:55;22.30;;;8.67;;
31872;SDS011;22407;42.820;23.374;2023-02-28T11:39:21;25.38;;;10.90;;
31872;SDS011;22407;42.820;23.374;2023-02-28T11:47:14;20.60;;;7.90;;
31872;SDS011;22407;42.820;23.374;2023-02-28T11:55:07;23.42;;;9.15;;
31872;SDS011;22407;42.820;23.374;2023-02-28T12:05:41;25.98;;;8.82;;
31872;SDS011;22407;42.820;23.374;2023-02-28T12:08:23;24.80;;;9.55;;
31872;SDS011;22407;42.820;23.374;2023-02-28T12:13:48;23.47;;;8.10;;
31872;SDS011;22407;42.820;23.374;2023-02-28T12:18:57;25.77;;;10.53;;
31872;SDS011;22407;42.820;23.374;2023-02-28T12:21:34;20.60;;;7.78;;
31872;SDS011;22407;42.820;23.374;2023-02-28T12:26:42;19.20;;;6.85;;
31872;SDS011;22407;42.820;23.374;2023-02-28T12:29:19;23.65;;;8.75;;
31872;SDS011;22407;42.820;23.374;2023-02-28T12:31:47;19.73;;;8.03;;
31872;SDS011;22407;42.820;23.374;2023-02-28T12:34:25;22.92;;;7.20;;
31872;SDS011;22407;42.820;23.374;2023-02-28T12:36:52;22.67;;;8.20;;
31872;SDS011;22407;42.820;23.374;2023-02-28T12:39:20;23.63;;;8.00;;
31872;SDS011;22407;42.820;23.374;2023-02-28T12:41:50;26.65;;;7.93;;
31872;SDS011;22407;42.820;23.374;2023-02-28T12:44:21;27.23;;;10.00;;
31872;SDS011;22407;42.820;23.374;2023-02-28T12:46:49;21.85;;;7.68;;
31872;SDS011;22407;42.820;23.374;2023-02-28T12:49:17;17.05;;;6.68;;
31872;SDS011;22407;42.820;23.374;2023-02-28T12:51:44;21.77;;;7.65;;
31872;SDS011;22407;42.820;23.374;2023-02-28T12:54:12;19.38;;;6.65;;
31872;SDS011;22407;42.820;23.374;2023-02-28T12:56:52;20.60;;;7.47;;
31872;SDS011;22407;42.820;23.374;2023-02-28T13:07:16;23.33;;;8.68;;
31872;SDS011;22407;42.820;23.374;2023-02-28T13:09:54;27.98;;;8.35;;
31872;SDS011;22407;42.820;23.374;2023-02-28T13:12:20;17.50;;;7.27;;
31872;SDS011;22407;42.820;23.374;2023-02-28T13:14:47;30.35;;;10.52;;
31872;SDS011;22407;42.820;23.374;2023-02-28T13:17:17;19.73;;;7.40;;
31872;SDS011;22407;42.820;23.374;2023-02-28T13:20:14;19.73;;;7.93;;
31872;SDS011;22407;42.820;23.374;2023-02-28T13:22:45;17.88;;;7.47;;
31872;SDS011;22407;42.820;23.374;2023-02-28T13:27:46;23.35;;;8.57;;
31872;SDS011;22407;42.820;23.374;2023-02-28T13:35:43;18.35;;;6.43;;
31872;SDS011;22407;42.820;23.374;2023-02-28T13:38:17;13.00;;;4.60;;
31872;SDS011;22407;42.820;23.374;2023-02-28T13:40:46;10.13;;;4.18;;
31872;SDS011;22407;42.820;23.374;2023-02-28T13:43:12;12.10;;;4.23;;
31872;SDS011;22407;42.820;23.374;2023-02-28T13:45:44;88.63;;;22.08;;
31872;SDS011;22407;42.820;23.374;2023-02-28T13:48:26;19.63;;;5.32;;
31872;SDS011;22407;42.820;23.374;2023-02-28T13:50:53;12.55;;;5.20;;
31872;SDS011;22407;42.820;23.374;2023-02-28T13:53:30;12.30;;;4.30;;
31872;SDS011;22407;42.820;23.374;2023-02-28T14:03:27;12.82;;;4.97;;
31872;SDS011;22407;42.820;23.374;2023-02-28T14:08:45;14.80;;;5.93;;
31872;SDS011;22407;42.820;23.374;2023-02-28T14:11:23;17.08;;;7.47;;
31872;SDS011;22407;42.820;23.374;2023-02-28T14:13:49;19.47;;;7.00;;
31872;SDS011;22407;42.820;23.374;2023-02-28T14:16:22;10.88;;;3.85;;
31872;SDS011;22407;42.820;23.374;2023-02-28T14:18:49;13.50;;;4.72;;
31872;SDS011;22407;42.820;23.374;2023-02-28T14:21:26;19.58;;;5.68;;
31872;SDS011;22407;42.820;23.374;2023-02-28T14:24:01;16.73;;;6.10;;
31872;SDS011;22407;42.820;23.374;2023-02-28T14:31:44;18.02;;;6.00;;
31872;SDS011;22407;42.820;23.374;2023-02-28T14:34:17;28.58;;;8.55;;
31872;SDS011;22407;42.820;23.374;2023-02-28T14:36:46;15.63;;;6.13;;
31872;SDS011;22407;42.820;23.374;2023-02-28T14:39:19;15.50;;;6.73;;
31872;SDS011;22407;42.820;23.374;2023-02-28T14:41:46;11.77;;;4.28;;
31872;SDS011;22407;42.820;23.374;2023-02-28T14:44:22;10.07;;;4.15;;
31872;SDS011;22407;42.820;23.374;2023-02-28T14:46:54;10.35;;;3.13;;
31872;SDS011;22407;42.820;23.374;2023-02-28T14:49:21;9.57;;;3.33;;
31872;SDS011;22407;42.820;23.374;2023-02-28T14:51:49;13.05;;;4.43;;
31872;SDS011;22407;42.820;23.374;2023-02-28T14:54:15;14.27;;;4.38;;
31872;SDS011;22407;42.820;23.374;2023-02-28T14:56:41;13.50;;;4.57;;
31872;SDS011;22407;42.820;23.374;2023-02-28T14:59:21;16.27;;;4.93;;
31872;SDS011;22407;42.820;23.374;2023-02-28T15:01:48;17.38;;;6.47;;
31872;SDS011;22407;42.820;23.374;2023-02-28T15:04:18;15.47;;;5.60;;
31872;SDS011;22407;42.820;23.374;2023-02-28T15:06:46;12.00;;;4.72;;
31872;SDS011;22407;42.820;23.374;2023-02-28T15:09:15;13.63;;;5.60;;
31872;SDS011;22407;42.820;23.374;2023-02-28T15:11:41;13.00;;;4.60;;
31872;SDS011;22407;42.820;23.374;2023-02-28T15:14:06;20.67;;;6.25;;
31872;SDS011;22407;42.820;23.374;2023-02-28T15:16:34;18.60;;;6.17;;
31872;SDS011;22407;42.820;23.374;2023-02-28T15:19:01;13.65;;;4.55;;
31872;SDS011;22407;42.820;23.374;2023-02-28T15:21:29;17.17;;;6.05;;
31872;SDS011;22407;42.820;23.374;2023-02-28T15:26:30;14.35;;;4.65;;
31872;SDS011;22407;42.820;23.374;2023-02-28T15:29:00;12.93;;;4.13;;
31872;SDS011;22407;42.820;23.374;2023-02-28T15:31:27;14.93;;;4.72;;
31872;SDS011;22407;42.820;23.374;2023-02-28T15:33:54;13.07;;;4.68;;
31872;SDS011;22407;42.820;23.374;2023-02-28T22:14:04;5.35;;;2.20;;
31872;SDS011;22407;42.820;23.374;2023-02-28T22:16:30;8.30;;;2.13;;
31872;SDS011;22407;42.820;23.374;2023-02-28T22:18:56;5.53;;;1.77;;
31872;SDS011;22407;42.820;23.374;2023-02-28T22:21:21;5.57;;;2.10;;
31872;SDS011;22407;42.820;23.374;2023-02-28T22:23:47;5.83;;;1.57;;
31872;SDS011;22407;42.820;23.374;2023-02-28T22:26:14;6.70;;;1.93;;
31872;SDS011;22407;42.820;23.374;2023-02-28T22:28:40;6.25;;;2.13;;
31872;SDS011;22407;42.820;23.374;2023-02-28T22:31:15;5.63;;;2.35;;
31872;SDS011;22407;42.820;23.374;2023-02-28T22:33:42;8.53;;;2.40;;
31872;SDS011;22407;42.820;23.374;2023-02-28T22:36:07;5.82;;;1.98;;
31872;SDS011;22407;42.820;23.374;2023-02-28T22:38:33;5.47;;;2.05;;
31872;SDS011;22407;42.820;23.374;2023-02-28T22:41:02;7.00;;;2.50;;
31872;SDS011;22407;42.820;23.374;2023-02-28T22:43:28;6.80;;;2.28;;
31872;SDS011;22407;42.820;23.374;2023-02-28T22:45:53;6.30;;;1.93;;
31872;SDS011;22407;42.820;23.374;2023-02-28T22:48:18;6.00;;;1.52;;
31872;SDS011;22407;42.820;23.374;2023-02-28T22:50:44;6.77;;;2.40;;
31872;SDS011;22407;42.820;23.374;2023-02-28T22:53:09;5.83;;;2.20;;
31872;SDS011;22407;42.820;23.374;2023-02-28T22:55:35;6.40;;;2.37;;
31872;SDS011;22407;42.820;23.374;2023-02-28T22:58:00;6.20;;;2.30;;
31872;SDS011;22407;42.820;23.374;2023-02-28T23:00:25;6.77;;;2.30;;